sensor_id;sensor_type;location;lat;lon;timestamp;temperature;humidity
61916;DHT22;47868;51.326;6.550;2022-11-20T00:01:07;4.40;99.90
61916;DHT22;47868;51.326;6.550;2022-11-20T00:03:34;4.40;99.90
61916;DHT22;47868;51.326;6.550;2022-11-20T00:06:05;4.40;99.90
61916;DHT22;47868;51.326;6.550;2022-11-20T00:08:32;4.40;99.90
61916;DHT22;47868;51.326;6.550;2022-11-20T00:11:01;4.40;99.90
61916;DHT22;47868;51.326;6.550;2022-11-20T00:13:27;4.30;99.90
61916;DHT22;47868;51.326;6.550;2022-11-20T00:16:00;4.20;99.90
61916;DHT22;47868;51.326;6.550;2022-11-20T00:18:27;4.20;99.90
61916;DHT22;47868;51.326;6.550;2022-11-20T00:20:53;4.20;99.90
61916;DHT22;47868;51.326;6.550;2022-11-20T00:23:19;4.10;99.90
61916;DHT22;47868;51.326;6.550;2022-11-20T00:25:44;4.20;99.90
61916;DHT22;47868;51.326;6.550;2022-11-20T00:28:10;4.20;99.90
61916;DHT22;47868;51.326;6.550;2022-11-20T00:30:36;4.10;99.90
61916;DHT22;47868;51.326;6.550;2022-11-20T00:33:01;3.90;99.90
61916;DHT22;47868;51.326;6.550;2022-11-20T00:35:27;3.80;99.90
61916;DHT22;47868;51.326;6.550;2022-11-20T00:37:53;3.90;99.90
61916;DHT22;47868;51.326;6.550;2022-11-20T00:40:18;3.90;99.90
61916;DHT22;47868;51.326;6.550;2022-11-20T00:42:44;3.90;99.90
61916;DHT22;47868;51.326;6.550;2022-11-20T00:45:09;3.90;99.90
61916;DHT22;47868;51.326;6.550;2022-11-20T00:47:35;3.90;99.90
61916;DHT22;47868;51.326;6.550;2022-11-20T00:50:01;4.00;99.90
61916;DHT22;47868;51.326;6.550;2022-11-20T00:52:26;4.00;99.90
61916;DHT22;47868;51.326;6.550;2022-11-20T00:54:52;4.10;99.90
61916;DHT22;47868;51.326;6.550;2022-11-20T00:57:17;3.90;99.90
61916;DHT22;47868;51.326;6.550;2022-11-20T00:59:43;4.00;99.90
61916;DHT22;47868;51.326;6.550;2022-11-20T01:02:09;4.00;99.90
61916;DHT22;47868;51.326;6.550;2022-11-20T01:04:34;4.00;99.90
61916;DHT22;47868;51.326;6.550;2022-11-20T01:07:00;4.10;99.90
61916;DHT22;47868;51.326;6.550;2022-11-20T01:09:25;4.10;99.90
61916;DHT22;47868;51.326;6.550;2022-11-20T01:11:51;4.20;99.90
61916;DHT22;47868;51.326;6.550;2022-11-20T01:14:19;4.20;99.90
61916;DHT22;47868;51.326;6.550;2022-11-20T01:16:51;4.20;99.90
61916;DHT22;47868;51.326;6.550;2022-11-20T01:19:21;4.20;99.90
61916;DHT22;47868;51.326;6.550;2022-11-20T01:21:52;4.20;99.90
61916;DHT22;47868;51.326;6.550;2022-11-20T01:24:19;4.20;99.90
61916;DHT22;47868;51.326;6.550;2022-11-20T01:26:48;4.20;99.90
61916;DHT22;47868;51.326;6.550;2022-11-20T01:29:16;4.10;99.90
61916;DHT22;47868;51.326;6.550;2022-11-20T01:31:42;4.10;99.90
61916;DHT22;47868;51.326;6.550;2022-11-20T01:34:14;4.10;99.90
61916;DHT22;47868;51.326;6.550;2022-11-20T01:36:41;4.10;99.90
61916;DHT22;47868;51.326;6.550;2022-11-20T01:39:11;4.00;99.90
61916;DHT22;47868;51.326;6.550;2022-11-20T01:41:37;4.10;99.90
61916;DHT22;47868;51.326;6.550;2022-11-20T01:44:49;4.10;99.90
61916;DHT22;47868;51.326;6.550;2022-11-20T01:47:09;4.10;99.90
61916;DHT22;47868;51.326;6.550;2022-11-20T01:49:46;4.20;99.90
61916;DHT22;47868;51.326;6.550;2022-11-20T01:52:20;4.20;99.90
61916;DHT22;47868;51.326;6.550;2022-11-20T01:54:57;4.10;99.90
61916;DHT22;47868;51.326;6.550;2022-11-20T01:57:25;4.10;99.90
61916;DHT22;47868;51.326;6.550;2022-11-20T01:59:59;4.10;99.90
61916;DHT22;47868;51.326;6.550;2022-11-20T02:02:25;4.20;99.90
61916;DHT22;47868;51.326;6.550;2022-11-20T02:04:53;4.20;99.90
61916;DHT22;47868;51.326;6.550;2022-11-20T02:07:20;4.30;99.90
61916;DHT22;47868;51.326;6.550;2022-11-20T02:09:46;4.30;99.90
61916;DHT22;47868;51.326;6.550;2022-11-20T02:12:12;4.30;99.90
61916;DHT22;47868;51.326;6.550;2022-11-20T02:14:58;4.40;99.90
61916;DHT22;47868;51.326;6.550;2022-11-20T02:17:24;4.40;99.90
61916;DHT22;47868;51.326;6.550;2022-11-20T02:19:51;4.30;99.90
61916;DHT22;47868;51.326;6.550;2022-11-20T02:22:28;4.30;99.90
61916;DHT22;47868;51.326;6.550;2022-11-20T02:24:57;4.30;99.90
61916;DHT22;47868;51.326;6.550;2022-11-20T02:27:25;4.20;99.90
61916;DHT22;47868;51.326;6.550;2022-11-20T02:32:35;4.00;99.90
61916;DHT22;47868;51.326;6.550;2022-11-20T02:37:58;3.90;99.90
61916;DHT22;47868;51.326;6.550;2022-11-20T02:40:25;3.80;99.90
61916;DHT22;47868;51.326;6.550;2022-11-20T02:42:54;3.70;99.90
61916;DHT22;47868;51.326;6.550;2022-11-20T02:45:21;3.70;99.90
61916;DHT22;47868;51.326;6.550;2022-11-20T02:47:48;3.60;99.90
61916;DHT22;47868;51.326;6.550;2022-11-20T02:50:13;3.60;99.90
61916;DHT22;47868;51.326;6.550;2022-11-20T02:52:39;3.60;99.90
61916;DHT22;47868;51.326;6.550;2022-11-20T02:55:05;3.60;99.90
61916;DHT22;47868;51.326;6.550;2022-11-20T02:57:31;3.50;99.90
61916;DHT22;47868;51.326;6.550;2022-11-20T02:59:56;3.50;99.90
61916;DHT22;47868;51.326;6.550;2022-11-20T03:02:22;3.40;99.90
61916;DHT22;47868;51.326;6.550;2022-11-20T03:04:48;3.30;99.90
61916;DHT22;47868;51.326;6.550;2022-11-20T03:07:13;3.20;99.90
61916;DHT22;47868;51.326;6.550;2022-11-20T03:09:39;3.10;99.90
61916;DHT22;47868;51.326;6.550;2022-11-20T03:12:05;3.10;99.90
61916;DHT22;47868;51.326;6.550;2022-11-20T03:14:31;3.00;99.90
61916;DHT22;47868;51.326;6.550;2022-11-20T03:16:56;3.00;99.90
61916;DHT22;47868;51.326;6.550;2022-11-20T03:19:22;2.90;99.90
61916;DHT22;47868;51.326;6.550;2022-11-20T03:21:48;2.80;99.90
61916;DHT22;47868;51.326;6.550;2022-11-20T03:24:14;2.80;99.90
61916;DHT22;47868;51.326;6.550;2022-11-20T03:26:40;2.70;99.90
61916;DHT22;47868;51.326;6.550;2022-11-20T03:29:06;2.70;99.90
61916;DHT22;47868;51.326;6.550;2022-11-20T03:31:34;2.60;99.90
61916;DHT22;47868;51.326;6.550;2022-11-20T03:34:01;2.60;99.90
61916;DHT22;47868;51.326;6.550;2022-11-20T03:36:27;2.60;99.90
61916;DHT22;47868;51.326;6.550;2022-11-20T03:38:54;2.60;99.90
61916;DHT22;47868;51.326;6.550;2022-11-20T03:41:25;2.70;99.90
61916;DHT22;47868;51.326;6.550;2022-11-20T03:44:01;2.70;99.90
61916;DHT22;47868;51.326;6.550;2022-11-20T03:46:28;2.70;99.90
61916;DHT22;47868;51.326;6.550;2022-11-20T03:48:54;2.70;99.90
61916;DHT22;47868;51.326;6.550;2022-11-20T03:51:22;2.70;99.90
61916;DHT22;47868;51.326;6.550;2022-11-20T03:53:50;2.70;99.90
61916;DHT22;47868;51.326;6.550;2022-11-20T03:56:18;2.60;99.90
61916;DHT22;47868;51.326;6.550;2022-11-20T03:58:44;2.70;99.90
61916;DHT22;47868;51.326;6.550;2022-11-20T04:01:11;2.60;99.90
61916;DHT22;47868;51.326;6.550;2022-11-20T04:03:38;2.60;99.90
61916;DHT22;47868;51.326;6.550;2022-11-20T04:06:13;2.60;99.90
61916;DHT22;47868;51.326;6.550;2022-11-20T04:08:39;2.70;99.90
61916;DHT22;47868;51.326;6.550;2022-11-20T04:11:26;2.70;99.90
61916;DHT22;47868;51.326;6.550;2022-11-20T04:13:54;2.80;99.90
61916;DHT22;47868;51.326;6.550;2022-11-20T04:16:21;2.80;99.90
61916;DHT22;47868;51.326;6.550;2022-11-20T04:18:50;2.90;99.90
61916;DHT22;47868;51.326;6.550;2022-11-20T04:21:16;2.80;99.90
61916;DHT22;47868;51.326;6.550;2022-11-20T04:23:42;2.80;99.90
61916;DHT22;47868;51.326;6.550;2022-11-20T04:26:11;2.80;99.90
61916;DHT22;47868;51.326;6.550;2022-11-20T04:28:38;2.80;99.90
61916;DHT22;47868;51.326;6.550;2022-11-20T04:31:07;2.80;99.90
61916;DHT22;47868;51.326;6.550;2022-11-20T04:33:34;2.70;99.90
61916;DHT22;47868;51.326;6.550;2022-11-20T04:36:05;2.80;99.90
61916;DHT22;47868;51.326;6.550;2022-11-20T04:38:31;2.90;99.90
61916;DHT22;47868;51.326;6.550;2022-11-20T04:41:02;2.90;99.90
61916;DHT22;47868;51.326;6.550;2022-11-20T04:43:28;2.90;99.90
61916;DHT22;47868;51.326;6.550;2022-11-20T04:45:55;2.90;99.90
61916;DHT22;47868;51.326;6.550;2022-11-20T04:48:22;2.90;99.90
61916;DHT22;47868;51.326;6.550;2022-11-20T04:50:47;2.90;99.90
61916;DHT22;47868;51.326;6.550;2022-11-20T04:53:14;2.90;99.90
61916;DHT22;47868;51.326;6.550;2022-11-20T04:55:40;2.90;99.90
61916;DHT22;47868;51.326;6.550;2022-11-20T04:58:06;3.00;99.90
61916;DHT22;47868;51.326;6.550;2022-11-20T05:00:31;3.10;99.90
61916;DHT22;47868;51.326;6.550;2022-11-20T05:02:57;3.20;99.90
61916;DHT22;47868;51.326;6.550;2022-11-20T05:05:22;3.20;99.90
61916;DHT22;47868;51.326;6.550;2022-11-20T05:07:48;3.20;99.90
61916;DHT22;47868;51.326;6.550;2022-11-20T05:10:14;3.10;99.90
61916;DHT22;47868;51.326;6.550;2022-11-20T05:12:39;3.10;99.90
61916;DHT22;47868;51.326;6.550;2022-11-20T05:15:05;3.20;99.90
61916;DHT22;47868;51.326;6.550;2022-11-20T05:17:31;3.30;99.90
61916;DHT22;47868;51.326;6.550;2022-11-20T05:19:56;3.40;99.90
61916;DHT22;47868;51.326;6.550;2022-11-20T05:22:22;3.40;99.90
61916;DHT22;47868;51.326;6.550;2022-11-20T05:24:48;3.50;99.90
61916;DHT22;47868;51.326;6.550;2022-11-20T05:27:14;3.60;99.90
61916;DHT22;47868;51.326;6.550;2022-11-20T05:29:39;3.60;99.90
61916;DHT22;47868;51.326;6.550;2022-11-20T05:32:05;3.70;99.90
61916;DHT22;47868;51.326;6.550;2022-11-20T05:34:32;3.70;99.90
61916;DHT22;47868;51.326;6.550;2022-11-20T05:36:58;3.60;99.90
61916;DHT22;47868;51.326;6.550;2022-11-20T05:39:23;3.50;99.90
61916;DHT22;47868;51.326;6.550;2022-11-20T05:41:49;3.60;99.90
61916;DHT22;47868;51.326;6.550;2022-11-20T05:44:35;3.50;99.90
61916;DHT22;47868;51.326;6.550;2022-11-20T05:47:00;3.40;99.90
61916;DHT22;47868;51.326;6.550;2022-11-20T05:49:26;3.40;99.90
61916;DHT22;47868;51.326;6.550;2022-11-20T05:51:51;3.40;99.90
61916;DHT22;47868;51.326;6.550;2022-11-20T05:54:17;3.40;99.90
61916;DHT22;47868;51.326;6.550;2022-11-20T05:56:42;3.40;99.90
61916;DHT22;47868;51.326;6.550;2022-11-20T05:59:08;3.40;99.90
61916;DHT22;47868;51.326;6.550;2022-11-20T06:01:34;3.40;99.90
61916;DHT22;47868;51.326;6.550;2022-11-20T06:04:01;3.40;99.90
61916;DHT22;47868;51.326;6.550;2022-11-20T06:06:27;3.50;99.90
61916;DHT22;47868;51.326;6.550;2022-11-20T06:08:53;3.50;99.90
61916;DHT22;47868;51.326;6.550;2022-11-20T06:11:18;3.60;99.90
61916;DHT22;47868;51.326;6.550;2022-11-20T06:13:44;3.70;99.90
61916;DHT22;47868;51.326;6.550;2022-11-20T06:16:12;3.70;99.90
61916;DHT22;47868;51.326;6.550;2022-11-20T06:18:39;3.60;99.90
61916;DHT22;47868;51.326;6.550;2022-11-20T06:21:09;3.70;99.90
61916;DHT22;47868;51.326;6.550;2022-11-20T06:23:35;3.80;99.90
61916;DHT22;47868;51.326;6.550;2022-11-20T06:26:06;3.80;99.90
61916;DHT22;47868;51.326;6.550;2022-11-20T06:28:32;3.80;99.90
61916;DHT22;47868;51.326;6.550;2022-11-20T06:30:58;3.90;99.90
61916;DHT22;47868;51.326;6.550;2022-11-20T06:33:23;3.90;99.90
61916;DHT22;47868;51.326;6.550;2022-11-20T06:35:49;3.90;99.90
61916;DHT22;47868;51.326;6.550;2022-11-20T06:38:14;3.80;99.90
61916;DHT22;47868;51.326;6.550;2022-11-20T06:40:41;3.80;99.90
61916;DHT22;47868;51.326;6.550;2022-11-20T06:43:10;3.80;99.90
61916;DHT22;47868;51.326;6.550;2022-11-20T06:45:36;3.80;99.90
61916;DHT22;47868;51.326;6.550;2022-11-20T06:48:02;3.80;99.90
61916;DHT22;47868;51.326;6.550;2022-11-20T06:50:28;3.80;99.90
61916;DHT22;47868;51.326;6.550;2022-11-20T06:52:54;3.70;99.90
61916;DHT22;47868;51.326;6.550;2022-11-20T06:55:20;3.70;99.90
61916;DHT22;47868;51.326;6.550;2022-11-20T06:57:45;3.60;99.90
61916;DHT22;47868;51.326;6.550;2022-11-20T07:00:11;3.50;99.90
61916;DHT22;47868;51.326;6.550;2022-11-20T07:02:37;3.50;99.90
61916;DHT22;47868;51.326;6.550;2022-11-20T07:05:02;3.50;99.90
61916;DHT22;47868;51.326;6.550;2022-11-20T07:07:29;3.50;99.90
61916;DHT22;47868;51.326;6.550;2022-11-20T07:09:55;3.40;99.90
61916;DHT22;47868;51.326;6.550;2022-11-20T07:12:21;3.40;99.90
61916;DHT22;47868;51.326;6.550;2022-11-20T07:14:46;3.40;99.90
61916;DHT22;47868;51.326;6.550;2022-11-20T07:17:12;3.40;99.90
61916;DHT22;47868;51.326;6.550;2022-11-20T07:19:38;3.40;99.90
61916;DHT22;47868;51.326;6.550;2022-11-20T07:22:04;3.50;99.90
61916;DHT22;47868;51.326;6.550;2022-11-20T07:24:30;3.50;99.90
61916;DHT22;47868;51.326;6.550;2022-11-20T07:26:55;3.50;99.90
61916;DHT22;47868;51.326;6.550;2022-11-20T07:29:21;3.50;99.90
61916;DHT22;47868;51.326;6.550;2022-11-20T07:31:46;3.50;99.90
61916;DHT22;47868;51.326;6.550;2022-11-20T07:34:12;3.50;99.90
61916;DHT22;47868;51.326;6.550;2022-11-20T07:36:37;3.60;99.90
61916;DHT22;47868;51.326;6.550;2022-11-20T07:39:03;3.60;99.90
61916;DHT22;47868;51.326;6.550;2022-11-20T07:41:29;3.60;99.90
61916;DHT22;47868;51.326;6.550;2022-11-20T07:43:55;3.70;99.90
61916;DHT22;47868;51.326;6.550;2022-11-20T07:46:20;3.80;99.90
61916;DHT22;47868;51.326;6.550;2022-11-20T07:48:46;3.70;99.90
61916;DHT22;47868;51.326;6.550;2022-11-20T07:51:11;3.70;99.90
61916;DHT22;47868;51.326;6.550;2022-11-20T07:53:38;3.80;99.90
61916;DHT22;47868;51.326;6.550;2022-11-20T07:56:04;3.80;99.90
61916;DHT22;47868;51.326;6.550;2022-11-20T07:58:30;3.90;99.90
61916;DHT22;47868;51.326;6.550;2022-11-20T08:01:02;3.90;99.90
61916;DHT22;47868;51.326;6.550;2022-11-20T08:03:27;4.00;99.90
61916;DHT22;47868;51.326;6.550;2022-11-20T08:05:53;4.00;99.90
61916;DHT22;47868;51.326;6.550;2022-11-20T08:08:19;4.00;99.90
61916;DHT22;47868;51.326;6.550;2022-11-20T08:10:44;4.00;99.90
61916;DHT22;47868;51.326;6.550;2022-11-20T08:13:10;3.90;99.90
61916;DHT22;47868;51.326;6.550;2022-11-20T08:15:54;3.80;99.90
61916;DHT22;47868;51.326;6.550;2022-11-20T08:18:20;3.80;99.90
61916;DHT22;47868;51.326;6.550;2022-11-20T08:20:45;3.90;99.90
61916;DHT22;47868;51.326;6.550;2022-11-20T08:23:11;3.90;99.90
61916;DHT22;47868;51.326;6.550;2022-11-20T08:25:37;4.00;99.90
61916;DHT22;47868;51.326;6.550;2022-11-20T08:28:06;4.00;99.90
61916;DHT22;47868;51.326;6.550;2022-11-20T08:30:32;4.10;99.90
61916;DHT22;47868;51.326;6.550;2022-11-20T08:33:03;4.20;99.90
61916;DHT22;47868;51.326;6.550;2022-11-20T08:35:33;4.40;99.90
61916;DHT22;47868;51.326;6.550;2022-11-20T08:37:59;4.50;99.90
61916;DHT22;47868;51.326;6.550;2022-11-20T08:40:24;4.50;99.90
61916;DHT22;47868;51.326;6.550;2022-11-20T08:42:51;4.40;99.90
61916;DHT22;47868;51.326;6.550;2022-11-20T08:45:18;4.40;99.90
61916;DHT22;47868;51.326;6.550;2022-11-20T08:47:44;4.40;99.90
61916;DHT22;47868;51.326;6.550;2022-11-20T08:50:11;4.40;99.90
61916;DHT22;47868;51.326;6.550;2022-11-20T08:52:37;4.50;99.90
61916;DHT22;47868;51.326;6.550;2022-11-20T08:55:04;4.50;99.90
61916;DHT22;47868;51.326;6.550;2022-11-20T08:57:36;4.50;99.90
61916;DHT22;47868;51.326;6.550;2022-11-20T09:00:04;4.60;99.90
61916;DHT22;47868;51.326;6.550;2022-11-20T09:02:30;4.80;99.90
61916;DHT22;47868;51.326;6.550;2022-11-20T09:04:57;4.90;99.90
61916;DHT22;47868;51.326;6.550;2022-11-20T09:07:23;4.90;99.90
61916;DHT22;47868;51.326;6.550;2022-11-20T09:09:48;5.00;99.90
61916;DHT22;47868;51.326;6.550;2022-11-20T09:12:14;5.10;99.90
61916;DHT22;47868;51.326;6.550;2022-11-20T09:14:40;5.20;99.90
61916;DHT22;47868;51.326;6.550;2022-11-20T09:17:05;5.20;99.90
61916;DHT22;47868;51.326;6.550;2022-11-20T09:19:33;5.10;99.90
61916;DHT22;47868;51.326;6.550;2022-11-20T09:21:58;5.20;99.90
61916;DHT22;47868;51.326;6.550;2022-11-20T09:24:25;5.20;99.90
61916;DHT22;47868;51.326;6.550;2022-11-20T09:26:51;5.30;99.90
61916;DHT22;47868;51.326;6.550;2022-11-20T09:29:17;5.40;99.90
61916;DHT22;47868;51.326;6.550;2022-11-20T09:31:42;5.50;99.90
61916;DHT22;47868;51.326;6.550;2022-11-20T09:34:08;5.70;99.90
61916;DHT22;47868;51.326;6.550;2022-11-20T09:36:33;5.80;99.90
61916;DHT22;47868;51.326;6.550;2022-11-20T09:38:59;6.00;99.90
61916;DHT22;47868;51.326;6.550;2022-11-20T09:44:21;6.20;99.90
61916;DHT22;47868;51.326;6.550;2022-11-20T09:54:44;6.00;99.90
61916;DHT22;47868;51.326;6.550;2022-11-20T09:57:21;6.00;99.90
61916;DHT22;47868;51.326;6.550;2022-11-20T09:59:54;5.90;99.90
61916;DHT22;47868;51.326;6.550;2022-11-20T10:07:53;5.70;99.90
61916;DHT22;47868;51.326;6.550;2022-11-20T10:10:42;5.60;99.90
61916;DHT22;47868;51.326;6.550;2022-11-20T10:21:11;5.80;99.90
61916;DHT22;47868;51.326;6.550;2022-11-20T10:29:07;6.00;99.90
61916;DHT22;47868;51.326;6.550;2022-11-20T10:31:44;6.10;99.90
61916;DHT22;47868;51.326;6.550;2022-11-20T10:37:27;6.10;99.90
61916;DHT22;47868;51.326;6.550;2022-11-20T10:42:40;6.00;99.90
61916;DHT22;47868;51.326;6.550;2022-11-20T10:47:48;6.10;99.90
61916;DHT22;47868;51.326;6.550;2022-11-20T10:50:18;6.10;99.90
61916;DHT22;47868;51.326;6.550;2022-11-20T10:55:43;6.00;99.90
61916;DHT22;47868;51.326;6.550;2022-11-20T10:58:14;6.10;99.90
61916;DHT22;47868;51.326;6.550;2022-11-20T11:00:39;6.20;99.90
61916;DHT22;47868;51.326;6.550;2022-11-20T11:05:55;6.30;99.90
61916;DHT22;47868;51.326;6.550;2022-11-20T11:08:26;6.30;99.90
61916;DHT22;47868;51.326;6.550;2022-11-20T11:10:55;6.20;99.90
61916;DHT22;47868;51.326;6.550;2022-11-20T11:13:23;6.30;99.90
61916;DHT22;47868;51.326;6.550;2022-11-20T11:15:50;6.30;99.90
61916;DHT22;47868;51.326;6.550;2022-11-20T11:18:34;6.30;99.90
61916;DHT22;47868;51.326;6.550;2022-11-20T11:21:01;6.30;99.90
61916;DHT22;47868;51.326;6.550;2022-11-20T11:23:42;6.30;99.90
61916;DHT22;47868;51.326;6.550;2022-11-20T11:26:22;6.20;99.90
61916;DHT22;47868;51.326;6.550;2022-11-20T11:29:00;6.30;99.90
61916;DHT22;47868;51.326;6.550;2022-11-20T11:31:31;6.20;99.90
61916;DHT22;47868;51.326;6.550;2022-11-20T11:34:14;6.20;99.90
61916;DHT22;47868;51.326;6.550;2022-11-20T11:36:40;6.20;99.90
61916;DHT22;47868;51.326;6.550;2022-11-20T11:39:16;6.30;99.90
61916;DHT22;47868;51.326;6.550;2022-11-20T11:41:42;6.40;99.90
61916;DHT22;47868;51.326;6.550;2022-11-20T11:44:34;6.40;99.90
61916;DHT22;47868;51.326;6.550;2022-11-20T11:47:29;6.40;99.90
61916;DHT22;47868;51.326;6.550;2022-11-20T12:00:49;6.50;99.90
61916;DHT22;47868;51.326;6.550;2022-11-20T12:03:24;6.50;99.90
61916;DHT22;47868;51.326;6.550;2022-11-20T12:05:55;6.60;99.90
61916;DHT22;47868;51.326;6.550;2022-11-20T12:11:38;6.60;99.90
61916;DHT22;47868;51.326;6.550;2022-11-20T12:14:27;6.60;99.90
61916;DHT22;47868;51.326;6.550;2022-11-20T12:16:54;6.70;99.90
61916;DHT22;47868;51.326;6.550;2022-11-20T12:19:22;6.70;99.90
61916;DHT22;47868;51.326;6.550;2022-11-20T12:25:18;6.80;99.90
61916;DHT22;47868;51.326;6.550;2022-11-20T12:30:21;6.90;99.90
61916;DHT22;47868;51.326;6.550;2022-11-20T12:47:16;6.60;99.90
61916;DHT22;47868;51.326;6.550;2022-11-20T13:01:19;6.50;99.90
61916;DHT22;47868;51.326;6.550;2022-11-20T13:04:50;6.50;99.90
61916;DHT22;47868;51.326;6.550;2022-11-20T13:07:21;6.50;99.90
61916;DHT22;47868;51.326;6.550;2022-11-20T13:09:50;6.50;99.90
61916;DHT22;47868;51.326;6.550;2022-11-20T13:12:33;6.60;99.90
61916;DHT22;47868;51.326;6.550;2022-11-20T13:17:54;6.60;99.90
61916;DHT22;47868;51.326;6.550;2022-11-20T13:20:21;6.60;99.90
61916;DHT22;47868;51.326;6.550;2022-11-20T13:22:49;6.60;99.90
61916;DHT22;47868;51.326;6.550;2022-11-20T13:25:42;6.60;99.90
61916;DHT22;47868;51.326;6.550;2022-11-20T13:30:48;6.70;99.90
61916;DHT22;47868;51.326;6.550;2022-11-20T13:33:34;6.70;99.90
61916;DHT22;47868;51.326;6.550;2022-11-20T13:36:22;6.70;99.90
61916;DHT22;47868;51.326;6.550;2022-11-20T13:38:49;6.70;99.90
61916;DHT22;47868;51.326;6.550;2022-11-20T13:44:23;6.70;99.90
61916;DHT22;47868;51.326;6.550;2022-11-20T13:46:49;6.70;99.90
61916;DHT22;47868;51.326;6.550;2022-11-20T13:52:26;6.70;99.90
61916;DHT22;47868;51.326;6.550;2022-11-20T13:55:01;6.70;99.90
61916;DHT22;47868;51.326;6.550;2022-11-20T13:57:35;6.80;99.90
61916;DHT22;47868;51.326;6.550;2022-11-20T14:00:21;6.80;99.90
61916;DHT22;47868;51.326;6.550;2022-11-20T14:05:35;6.90;99.90
61916;DHT22;47868;51.326;6.550;2022-11-20T14:08:04;6.90;99.90
61916;DHT22;47868;51.326;6.550;2022-11-20T14:10:31;6.90;99.90
61916;DHT22;47868;51.326;6.550;2022-11-20T14:12:57;6.90;99.90
61916;DHT22;47868;51.326;6.550;2022-11-20T14:15:33;6.90;99.90
61916;DHT22;47868;51.326;6.550;2022-11-20T14:18:10;6.90;99.90
61916;DHT22;47868;51.326;6.550;2022-11-20T14:20:37;6.90;99.90
61916;DHT22;47868;51.326;6.550;2022-11-20T14:23:03;6.90;99.90
61916;DHT22;47868;51.326;6.550;2022-11-20T14:25:30;6.90;99.90
61916;DHT22;47868;51.326;6.550;2022-11-20T14:28:03;6.90;99.90
61916;DHT22;47868;51.326;6.550;2022-11-20T14:30:44;6.90;99.90
61916;DHT22;47868;51.326;6.550;2022-11-20T14:33:13;6.90;99.90
61916;DHT22;47868;51.326;6.550;2022-11-20T14:35:53;6.80;99.90
61916;DHT22;47868;51.326;6.550;2022-11-20T14:38:26;6.90;99.90
61916;DHT22;47868;51.326;6.550;2022-11-20T14:40:52;6.80;99.90
61916;DHT22;47868;51.326;6.550;2022-11-20T14:43:28;6.90;99.90
61916;DHT22;47868;51.326;6.550;2022-11-20T14:46:02;6.90;99.90
61916;DHT22;47868;51.326;6.550;2022-11-20T14:51:05;6.90;99.90
61916;DHT22;47868;51.326;6.550;2022-11-20T14:53:33;6.80;99.90
61916;DHT22;47868;51.326;6.550;2022-11-20T14:56:01;6.80;99.90
61916;DHT22;47868;51.326;6.550;2022-11-20T14:58:29;6.80;99.90
61916;DHT22;47868;51.326;6.550;2022-11-20T15:01:00;6.80;99.90
61916;DHT22;47868;51.326;6.550;2022-11-20T15:03:34;6.70;99.90
61916;DHT22;47868;51.326;6.550;2022-11-20T15:06:00;6.70;99.90
61916;DHT22;47868;51.326;6.550;2022-11-20T15:08:27;6.70;99.90
61916;DHT22;47868;51.326;6.550;2022-11-20T15:10:53;6.70;99.90
61916;DHT22;47868;51.326;6.550;2022-11-20T15:13:36;6.70;99.90
61916;DHT22;47868;51.326;6.550;2022-11-20T15:16:04;6.80;99.90
61916;DHT22;47868;51.326;6.550;2022-11-20T15:18:38;6.80;99.90
61916;DHT22;47868;51.326;6.550;2022-11-20T15:21:11;6.80;99.90
61916;DHT22;47868;51.326;6.550;2022-11-20T15:23:37;6.70;99.90
61916;DHT22;47868;51.326;6.550;2022-11-20T15:26:07;6.70;99.90
61916;DHT22;47868;51.326;6.550;2022-11-20T15:28:54;6.70;99.90
61916;DHT22;47868;51.326;6.550;2022-11-20T15:31:22;6.70;99.90
61916;DHT22;47868;51.326;6.550;2022-11-20T15:33:48;6.60;99.90
61916;DHT22;47868;51.326;6.550;2022-11-20T15:36:14;6.60;99.90
61916;DHT22;47868;51.326;6.550;2022-11-20T15:38:40;6.60;99.90
61916;DHT22;47868;51.326;6.550;2022-11-20T15:41:06;6.60;99.90
61916;DHT22;47868;51.326;6.550;2022-11-20T15:43:32;6.60;99.90
61916;DHT22;47868;51.326;6.550;2022-11-20T15:46:06;6.60;99.90
61916;DHT22;47868;51.326;6.550;2022-11-20T15:51:30;6.60;99.90
61916;DHT22;47868;51.326;6.550;2022-11-20T15:53:57;6.60;99.90
61916;DHT22;47868;51.326;6.550;2022-11-20T15:56:23;6.60;99.90
61916;DHT22;47868;51.326;6.550;2022-11-20T15:58:49;6.60;99.90
61916;DHT22;47868;51.326;6.550;2022-11-20T16:01:17;6.60;99.90
61916;DHT22;47868;51.326;6.550;2022-11-20T16:03:44;6.60;99.90
61916;DHT22;47868;51.326;6.550;2022-11-20T16:06:09;6.60;99.90
61916;DHT22;47868;51.326;6.550;2022-11-20T16:08:35;6.60;99.90
61916;DHT22;47868;51.326;6.550;2022-11-20T16:11:01;6.60;99.90
61916;DHT22;47868;51.326;6.550;2022-11-20T16:13:27;6.60;99.90
61916;DHT22;47868;51.326;6.550;2022-11-20T16:16:32;6.60;99.90
61916;DHT22;47868;51.326;6.550;2022-11-20T16:18:58;6.60;99.90
61916;DHT22;47868;51.326;6.550;2022-11-20T16:21:24;6.60;99.90
61916;DHT22;47868;51.326;6.550;2022-11-20T16:23:57;6.60;99.90
61916;DHT22;47868;51.326;6.550;2022-11-20T16:26:23;6.60;99.90
61916;DHT22;47868;51.326;6.550;2022-11-20T16:28:48;6.60;99.90
61916;DHT22;47868;51.326;6.550;2022-11-20T16:31:16;6.70;99.90
61916;DHT22;47868;51.326;6.550;2022-11-20T16:33:43;6.60;99.90
61916;DHT22;47868;51.326;6.550;2022-11-20T16:36:14;6.70;99.90
61916;DHT22;47868;51.326;6.550;2022-11-20T16:38:40;6.70;99.90
61916;DHT22;47868;51.326;6.550;2022-11-20T16:41:06;6.70;99.90
61916;DHT22;47868;51.326;6.550;2022-11-20T16:43:47;6.70;99.90
61916;DHT22;47868;51.326;6.550;2022-11-20T16:46:17;6.70;99.90
61916;DHT22;47868;51.326;6.550;2022-11-20T16:48:43;6.70;99.90
61916;DHT22;47868;51.326;6.550;2022-11-20T16:51:10;6.70;99.90
61916;DHT22;47868;51.326;6.550;2022-11-20T16:53:37;6.70;99.90
61916;DHT22;47868;51.326;6.550;2022-11-20T16:56:16;6.70;99.90
61916;DHT22;47868;51.326;6.550;2022-11-20T16:58:46;6.70;99.90
61916;DHT22;47868;51.326;6.550;2022-11-20T17:01:14;6.70;99.90
61916;DHT22;47868;51.326;6.550;2022-11-20T17:03:41;6.70;99.90
61916;DHT22;47868;51.326;6.550;2022-11-20T17:06:18;6.70;99.90
61916;DHT22;47868;51.326;6.550;2022-11-20T17:08:44;6.70;99.90
61916;DHT22;47868;51.326;6.550;2022-11-20T17:11:14;6.70;99.90
61916;DHT22;47868;51.326;6.550;2022-11-20T17:13:40;6.70;99.90
61916;DHT22;47868;51.326;6.550;2022-11-20T17:16:11;6.80;99.90
61916;DHT22;47868;51.326;6.550;2022-11-20T17:18:37;6.70;99.90
61916;DHT22;47868;51.326;6.550;2022-11-20T17:21:03;6.80;99.90
61916;DHT22;47868;51.326;6.550;2022-11-20T17:23:40;6.80;99.90
61916;DHT22;47868;51.326;6.550;2022-11-20T17:26:12;6.80;99.90
61916;DHT22;47868;51.326;6.550;2022-11-20T17:28:59;6.80;99.90
61916;DHT22;47868;51.326;6.550;2022-11-20T17:31:26;6.80;99.90
61916;DHT22;47868;51.326;6.550;2022-11-20T17:33:53;6.80;99.90
61916;DHT22;47868;51.326;6.550;2022-11-20T17:36:19;6.80;99.90
61916;DHT22;47868;51.326;6.550;2022-11-20T17:38:45;6.90;99.90
61916;DHT22;47868;51.326;6.550;2022-11-20T17:41:13;6.90;99.90
61916;DHT22;47868;51.326;6.550;2022-11-20T17:43:39;6.90;99.90
61916;DHT22;47868;51.326;6.550;2022-11-20T17:46:13;6.90;99.90
61916;DHT22;47868;51.326;6.550;2022-11-20T17:48:39;6.90;99.90
61916;DHT22;47868;51.326;6.550;2022-11-20T17:51:12;6.90;99.90